Time;durP1;ratioP1;P1;durP2;ratioP2;P2;SDS_P1;SDS_P2;PMS_P1;PMS_P2;Temp;Humidity;BMP_temperature;BMP_pressure;BME280_temperature;BME280_humidity;BME280_pressure;Samples;Min_cycle;Max_cycle;Signal;HPM_P1;HPM_P2
2022/04/03 00:02:24;;;;;;;1.52;0.55;;;3.00;99.90;;;;;;20625464;28;20055;-46
2022/04/03 00:12:25;;;;;;;2.60;0.55;;;2.90;99.90;;;;;;20622958;28;20045;-45
2022/04/03 00:22:28;;;;;;;1.67;0.57;;;2.70;99.90;;;;;;20623871;28;20049;-46
2022/04/03 00:32:30;;;;;;;1.23;0.43;;;2.40;99.90;;;;;;20622664;28;20106;-46
2022/04/03 00:42:36;;;;;;;1.15;0.63;;;2.30;99.90;;;;;;20621491;28;20046;-45
2022/04/03 00:52:37;;;;;;;2.25;0.43;;;2.10;99.90;;;;;;20603868;28;20581;-45
2022/04/03 01:02:39;;;;;;;1.83;0.75;;;2.00;99.90;;;;;;20620762;28;20062;-45
2022/04/03 01:12:44;;;;;;;0.95;0.45;;;1.80;99.90;;;;;;20618667;28;20038;-45
2022/04/03 01:22:45;;;;;;;4.30;0.68;;;1.70;99.90;;;;;;20617656;28;20049;-45
2022/04/03 01:32:46;;;;;;;1.10;0.32;;;1.70;99.90;;;;;;20616468;28;20035;-45
2022/04/03 01:42:47;;;;;;;1.15;0.40;;;1.60;99.90;;;;;;20600257;28;20410;-45
2022/04/03 01:52:48;;;;;;;1.80;0.90;;;1.40;99.90;;;;;;20618534;28;20418;-45
2022/04/03 02:02:50;;;;;;;1.90;0.77;;;1.40;99.90;;;;;;20611798;28;20046;-45
2022/04/03 02:12:51;;;;;;;1.45;0.68;;;1.50;99.90;;;;;;20617021;28;20047;-45
2022/04/03 02:22:52;;;;;;;1.40;0.63;;;1.60;99.90;;;;;;20594889;28;20042;-45
2022/04/03 02:32:53;;;;;;;5.13;0.73;;;1.70;99.90;;;;;;21054168;23;20050;-47
2022/04/03 02:42:59;;;;;;;2.63;1.05;;;1.90;99.90;;;;;;20757920;28;20034;-45
2022/04/03 02:53:00;;;;;;;2.72;1.10;;;1.90;99.90;;;;;;20759352;28;20041;-45
2022/04/03 03:03:04;;;;;;;1.70;0.85;;;1.80;99.90;;;;;;20762991;28;20037;-46
2022/04/03 03:13:05;;;;;;;1.88;0.80;;;1.70;99.90;;;;;;20756947;28;20040;-45
2022/04/03 03:23:06;;;;;;;2.40;1.05;;;1.70;99.90;;;;;;20758537;28;20049;-45
2022/04/03 03:33:09;;;;;;;4.57;0.73;;;1.70;99.90;;;;;;20759279;28;20484;-46
2022/04/03 03:43:10;;;;;;;2.45;1.00;;;1.90;99.90;;;;;;20791495;28;20042;-45
2022/04/03 03:53:11;;;;;;;1.98;1.02;;;1.90;99.90;;;;;;20794422;28;20456;-46
2022/04/03 04:03:12;;;;;;;4.55;2.20;;;1.90;99.90;;;;;;20769939;28;20491;-45
2022/04/03 04:13:13;;;;;;;3.45;1.85;;;1.80;99.90;;;;;;20788637;28;20049;-45
2022/04/03 04:23:14;;;;;;;5.53;2.33;;;1.70;99.90;;;;;;20789732;28;20040;-46
2022/04/03 04:33:16;;;;;;;3.45;1.65;;;1.50;99.90;;;;;;20786351;28;20496;-46
2022/04/03 04:43:17;;;;;;;3.92;1.92;;;1.40;99.90;;;;;;20778628;28;20045;-46
2022/04/03 04:53:18;;;;;;;4.32;2.08;;;1.30;99.90;;;;;;20773846;28;20437;-46
2022/04/03 05:03:19;;;;;;;6.53;2.53;;;1.10;99.90;;;;;;20773541;28;20103;-45
2022/04/03 05:13:25;;;;;;;5.85;2.22;;;1.00;99.90;;;;;;20780510;28;20045;-46
2022/04/03 05:23:26;;;;;;;4.97;2.58;;;0.90;99.90;;;;;;20774996;28;20516;-45
2022/04/03 05:33:27;;;;;;;4.00;1.90;;;0.90;99.90;;;;;;20771033;28;20743;-45
2022/04/03 05:43:28;;;;;;;5.75;1.98;;;0.80;99.90;;;;;;20766885;28;20053;-45
2022/04/03 05:53:30;;;;;;;3.55;2.00;;;0.80;99.90;;;;;;20765139;28;20041;-46
2022/04/03 06:03:31;;;;;;;4.28;1.60;;;0.90;99.90;;;;;;20766543;28;20046;-46
2022/04/03 06:13:32;;;;;;;6.32;2.03;;;1.00;99.90;;;;;;20765088;28;20134;-46
2022/04/03 06:23:33;;;;;;;2.70;1.50;;;1.10;99.90;;;;;;20782107;28;21484;-45
2022/04/03 06:33:34;;;;;;;4.10;1.77;;;1.30;99.90;;;;;;20823876;28;20677;-45
2022/04/03 06:43:35;;;;;;;3.53;1.48;;;1.60;99.90;;;;;;20840055;28;20049;-46
2022/04/03 06:53:36;;;;;;;2.05;1.20;;;1.90;99.90;;;;;;20799724;28;20136;-45
2022/04/03 07:03:37;;;;;;;2.20;0.98;;;2.00;99.90;;;;;;20827598;28;20069;-45
2022/04/03 07:13:38;;;;;;;2.50;0.75;;;2.50;99.90;;;;;;20803041;28;20093;-46
2022/04/03 07:23:39;;;;;;;4.15;1.50;;;2.80;99.90;;;;;;20851992;28;20048;-46
2022/04/03 07:33:40;;;;;;;2.13;1.02;;;3.20;99.90;;;;;;20834196;28;20080;-45
2022/04/03 07:43:42;;;;;;;1.50;0.75;;;3.70;99.90;;;;;;20829961;28;20557;-46
2022/04/03 07:53:43;;;;;;;2.17;0.73;;;4.30;99.90;;;;;;20835035;28;20148;-46
2022/04/03 08:03:44;;;;;;;1.70;0.50;;;4.80;99.90;;;;;;20805896;28;20034;-46
2022/04/03 08:13:47;;;;;;;0.40;0.25;;;5.50;99.90;;;;;;20784413;28;20451;-46
2022/04/03 08:23:48;;;;;;;1.42;0.40;;;5.90;99.90;;;;;;20750794;28;20033;-46
2022/04/03 08:33:51;;;;;;;1.05;0.30;;;6.30;99.90;;;;;;20803559;28;20253;-46
2022/04/03 08:43:52;;;;;;;1.00;0.30;;;6.60;99.90;;;;;;20762585;28;20416;-45
2022/04/03 08:53:53;;;;;;;1.00;0.45;;;6.70;99.90;;;;;;20763696;28;20060;-46
2022/04/03 09:03:54;;;;;;;1.95;0.60;;;7.00;99.90;;;;;;20759900;28;20041;-46
2022/04/03 09:13:56;;;;;;;2.03;0.50;;;7.50;99.90;;;;;;20777365;28;20040;-46
2022/04/03 09:24:03;;;;;;;1.55;0.63;;;7.70;99.90;;;;;;20780685;28;20045;-46
2022/04/03 09:34:06;;;;;;;2.05;0.80;;;7.10;99.90;;;;;;20739040;28;20068;-46
2022/04/03 09:44:16;;;;;;;1.45;0.40;;;6.60;99.90;;;;;;20772275;28;20052;-46
2022/04/03 09:54:19;;;;;;;1.10;0.30;;;6.20;99.90;;;;;;20741650;28;20041;-46
2022/04/03 10:04:21;;;;;;;1.73;0.60;;;5.60;99.90;;;;;;20759363;28;20488;-46
2022/04/03 10:14:24;;;;;;;1.38;0.55;;;5.70;99.90;;;;;;20764505;28;20049;-46
2022/04/03 10:24:29;;;;;;;0.98;0.40;;;6.30;99.90;;;;;;20771327;28;20689;-46
2022/04/03 10:34:43;;;;;;;3.35;0.30;;;7.00;99.90;;;;;;20772175;28;20045;-46
2022/04/03 10:45:10;;;;;;;1.48;1.15;;;7.70;99.90;;;;;;20770359;28;20042;-46
2022/04/03 10:55:15;;;;;;;0.87;0.40;;;8.40;99.90;;;;;;20760954;28;21287;-46
2022/04/03 11:05:26;;;;;;;1.90;0.20;;;9.10;99.90;;;;;;20754804;28;20064;-46
2022/04/03 11:15:42;;;;;;;0.50;0.10;;;9.00;99.90;;;;;;20774583;28;20523;-47
2022/04/03 11:25:43;;;;;;;1.60;0.30;;;9.70;99.90;;;;;;20778973;28;20452;-46
2022/04/03 11:35:46;;;;;;;0.88;0.17;;;10.30;99.90;;;;;;20786246;28;20053;-46
2022/04/03 11:45:56;;;;;;;1.17;0.50;;;9.50;99.90;;;;;;20785276;28;20037;-46
2022/04/03 11:56:14;;;;;;;0.30;0.10;;;8.00;99.90;;;;;;20785011;28;21568;-46
2022/04/03 12:06:17;;;;;;;0.82;0.20;;;7.00;99.90;;;;;;20800292;28;20033;-46
2022/04/03 12:16:25;;;;;;;0.35;0.10;;;6.80;99.90;;;;;;20806137;28;20037;-46
2022/04/03 12:26:26;;;;;;;0.80;0.35;;;6.70;99.90;;;;;;20811936;28;20056;-47
2022/04/03 12:36:40;;;;;;;1.40;0.60;;;8.40;99.90;;;;;;20813112;28;20607;-47
2022/04/03 12:46:42;;;;;;;1.50;0.40;;;9.70;99.90;;;;;;20821848;28;20048;-47
2022/04/03 13:07:10;;;;;;;1.38;0.20;;;9.10;99.90;;;;;;20807260;28;21369;-47
2022/04/03 13:17:15;;;;;;;1.95;0.30;;;9.90;99.90;;;;;;20810989;28;20033;-47
2022/04/03 13:27:16;;;;;;;0.65;0.13;;;8.90;99.90;;;;;;20810177;28;20480;-47
2022/04/03 13:37:17;;;;;;;0.60;0.20;;;7.80;99.90;;;;;;20810878;28;20049;-47
2022/04/03 13:47:18;;;;;;;0.38;0.10;;;7.30;99.90;;;;;;20814356;28;20063;-51
2022/04/03 13:57:20;;;;;;;1.90;0.30;;;6.80;99.90;;;;;;20808857;28;20137;-47
2022/04/03 14:07:21;;;;;;;0.88;0.25;;;6.90;99.90;;;;;;20810410;28;20043;-46
2022/04/03 14:17:22;;;;;;;1.17;0.28;;;7.10;99.90;;;;;;20804196;28;20046;-46
2022/04/03 14:27:24;;;;;;;0.63;0.20;;;7.10;99.90;;;;;;20798232;28;20047;-46
2022/04/03 14:37:26;;;;;;;0.68;0.30;;;7.30;99.90;;;;;;20801749;28;20041;-46
2022/04/03 14:47:27;;;;;;;3.60;0.25;;;8.50;99.90;;;;;;20803636;28;20041;-47
2022/04/03 14:57:28;;;;;;;1.40;0.28;;;9.80;99.90;;;;;;20799560;28;20041;-46
2022/04/03 15:07:31;;;;;;;0.38;0.20;;;10.30;99.90;;;;;;20800746;28;20060;-46
2022/04/03 15:17:32;;;;;;;0.88;0.20;;;9.90;99.90;;;;;;20797566;28;20164;-46
2022/04/03 15:27:33;;;;;;;0.28;0.10;;;9.80;99.90;;;;;;20801030;28;20133;-46
2022/04/03 15:37:40;;;;;;;0.50;0.20;;;9.80;99.90;;;;;;20757788;28;20046;-46
2022/04/03 15:47:41;;;;;;;3.25;0.40;;;9.70;99.90;;;;;;20727659;28;20400;-46
2022/04/03 15:57:42;;;;;;;0.75;0.20;;;9.50;99.90;;;;;;20727902;28;20042;-46
2022/04/03 16:07:43;;;;;;;1.20;0.17;;;9.30;99.90;;;;;;20720462;28;20053;-46
2022/04/03 16:17:46;;;;;;;0.10;0.10;;;9.00;99.90;;;;;;20722749;28;20043;-46
2022/04/03 16:27:47;;;;;;;0.55;0.10;;;8.80;99.90;;;;;;20715587;28;20037;-47
2022/04/03 16:37:48;;;;;;;3.00;0.60;;;8.70;99.90;;;;;;20761817;28;20042;-46
2022/04/03 16:47:49;;;;;;;0.25;0.10;;;8.40;99.90;;;;;;20796503;28;20042;-46
2022/04/03 16:57:50;;;;;;;3.05;0.28;;;7.80;99.90;;;;;;20794568;28;20521;-46
2022/04/03 17:07:51;;;;;;;0.40;0.10;;;7.50;99.90;;;;;;20794555;28;20057;-46
2022/04/03 17:17:52;;;;;;;8.00;2.90;;;7.60;99.90;;;;;;20798419;28;20049;-46
2022/04/03 17:27:54;;;;;;;2.00;0.75;;;7.60;99.90;;;;;;20796711;28;20049;-46
2022/04/03 17:37:55;;;;;;;2.60;1.10;;;7.40;99.90;;;;;;20784966;28;20138;-46
2022/04/03 17:47:56;;;;;;;1.17;0.32;;;7.30;99.90;;;;;;20799425;28;20424;-46
2022/04/03 17:57:59;;;;;;;0.75;0.30;;;7.00;99.90;;;;;;20804766;28;20037;-46
2022/04/03 18:08:01;;;;;;;8.75;2.65;;;6.90;99.90;;;;;;20799650;28;20038;-46
2022/04/03 18:18:03;;;;;;;3.10;1.55;;;6.70;99.90;;;;;;20797622;28;20049;-46
2022/04/03 18:28:04;;;;;;;1.95;0.85;;;6.40;99.90;;;;;;20790960;28;20049;-46
2022/04/03 18:38:07;;;;;;;1.65;0.65;;;6.20;99.90;;;;;;20781978;28;20045;-48
2022/04/03 18:48:08;;;;;;;5.65;2.00;;;5.90;99.90;;;;;;20789800;28;20045;-46
2022/04/03 18:58:10;;;;;;;9.57;2.00;;;5.70;99.90;;;;;;20784547;28;20827;-46
2022/04/03 19:08:11;;;;;;;9.75;3.70;;;5.50;99.90;;;;;;20794558;28;20408;-46
2022/04/03 19:18:12;;;;;;;2.42;1.02;;;5.30;99.90;;;;;;20807492;28;20046;-45
2022/04/03 19:28:15;;;;;;;1.20;0.40;;;5.40;99.90;;;;;;20806950;28;20041;-46
2022/04/03 19:38:16;;;;;;;0.70;0.25;;;5.50;99.90;;;;;;20795863;28;20049;-46
2022/04/03 19:48:17;;;;;;;3.03;0.70;;;5.50;99.90;;;;;;20805931;28;20048;-46
2022/04/03 19:58:18;;;;;;;3.42;1.25;;;5.40;99.90;;;;;;20806133;28;20049;-46
2022/04/03 20:08:19;;;;;;;2.70;0.93;;;5.30;99.90;;;;;;20811980;28;20384;-46
2022/04/03 20:18:20;;;;;;;2.40;0.80;;;5.20;99.90;;;;;;20805964;28;20060;-46
2022/04/03 20:28:23;;;;;;;2.78;1.00;;;5.00;99.90;;;;;;20793711;28;20497;-46
2022/04/03 20:38:26;;;;;;;1.52;0.80;;;4.90;99.90;;;;;;20771244;28;20552;-46
2022/04/03 20:48:27;;;;;;;1.60;0.60;;;4.90;99.90;;;;;;20785608;28;20046;-46
2022/04/03 20:58:28;;;;;;;3.47;0.95;;;4.90;99.90;;;;;;20787879;28;20037;-46
2022/04/03 21:08:30;;;;;;;3.05;1.00;;;4.80;99.90;;;;;;20794856;28;20045;-46
2022/04/03 21:18:32;;;;;;;3.45;0.85;;;4.70;99.90;;;;;;20789780;28;20523;-45
2022/04/03 21:28:33;;;;;;;3.67;1.33;;;4.70;99.90;;;;;;20793124;28;20377;-46
2022/04/03 21:38:34;;;;;;;3.00;1.35;;;4.60;99.90;;;;;;20797247;28;20056;-46
2022/04/03 21:48:35;;;;;;;6.60;1.20;;;4.50;99.90;;;;;;20803569;28;20045;-47
2022/04/03 21:58:36;;;;;;;3.22;0.80;;;4.50;99.90;;;;;;20799500;28;20041;-46
2022/04/03 22:08:37;;;;;;;2.22;1.23;;;4.40;99.90;;;;;;20796847;28;20037;-46
2022/04/03 22:18:38;;;;;;;2.50;1.20;;;4.30;99.90;;;;;;20796212;28;20406;-46
2022/04/03 22:28:40;;;;;;;3.97;1.08;;;4.20;99.90;;;;;;20799073;28;20053;-46
2022/04/03 22:38:45;;;;;;;3.55;1.13;;;4.30;99.90;;;;;;20789356;28;20041;-46
2022/04/03 22:48:47;;;;;;;1.92;0.82;;;4.20;99.90;;;;;;20782055;28;20038;-47
2022/04/03 22:58:48;;;;;;;2.45;1.02;;;4.00;99.90;;;;;;20783977;28;20041;-46
2022/04/03 23:08:49;;;;;;;2.42;0.85;;;4.00;99.90;;;;;;20782338;28;20045;-46
2022/04/03 23:18:50;;;;;;;2.55;0.68;;;4.00;99.90;;;;;;20777140;28;20052;-46
2022/04/03 23:28:51;;;;;;;2.58;0.70;;;4.10;99.90;;;;;;20779928;28;20406;-46
2022/04/03 23:38:52;;;;;;;2.35;0.80;;;4.00;99.90;;;;;;20791615;28;20072;-46
2022/04/03 23:48:53;;;;;;;1.45;0.57;;;3.90;99.90;;;;;;20796312;28;20325;-46
2022/04/03 23:58:55;;;;;;;7.13;1.10;;;4.00;99.90;;;;;;20805052;28;20396;-46
